Time;durP1;ratioP1;P1;durP2;ratioP2;P2;SDS_P1;SDS_P2;PMS_P1;PMS_P2;Temp;Humidity;BMP_temperature;BMP_pressure;BME280_temperature;BME280_humidity;BME280_pressure;Samples;Min_cycle;Max_cycle;Signal;HPM_P1;HPM_P2
2023/10/13 00:01:11;;;;;;;9.60;7.03;;;;;;;12.75;86.99;95131.22;5092170;28;20217;-43
2023/10/13 00:03:39;;;;;;;15.43;7.43;;;;;;;12.73;87.13;95119.47;5073247;28;20340;-43
2023/10/13 00:06:08;;;;;;;9.33;6.00;;;;;;;12.74;87.16;95123.69;5073068;28;20179;-44
2023/10/13 00:08:36;;;;;;;8.13;7.03;;;;;;;12.73;87.24;95125.41;5072357;28;20202;-43
2023/10/13 00:11:04;;;;;;;9.70;6.73;;;;;;;12.66;87.34;95116.69;5072970;28;20194;-43
2023/10/13 00:13:42;;;;;;;7.37;6.40;;;;;;;12.69;87.62;95124.06;5072619;28;20570;-44
2023/10/13 00:16:16;;;;;;;13.20;7.80;;;;;;;12.69;87.62;95120.72;5074042;28;20186;-43
2023/10/13 00:18:43;;;;;;;9.73;6.43;;;;;;;12.65;87.62;95125.34;5072580;28;20957;-42
2023/10/13 00:21:15;;;;;;;13.07;6.67;;;;;;;12.54;88.02;95105.78;5072503;28;20237;-43
2023/10/13 00:23:52;;;;;;;8.67;7.10;;;;;;;12.63;88.03;95116.16;5072405;28;20190;-45
2023/10/13 00:26:23;;;;;;;11.50;6.93;;;;;;;12.61;88.14;95116.28;5072411;28;20223;-45
2023/10/13 00:28:58;;;;;;;10.40;6.57;;;;;;;12.57;88.16;95117.53;5072629;28;20198;-42
2023/10/13 00:31:31;;;;;;;10.70;7.43;;;;;;;12.56;88.29;95118.44;5052212;28;20197;-43
2023/10/13 00:34:03;;;;;;;10.67;6.77;;;;;;;12.54;88.50;95117.78;5052617;28;20194;-44
2023/10/13 00:36:31;;;;;;;10.60;6.97;;;;;;;12.54;88.36;95131.41;5052138;28;20257;-44
2023/10/13 00:38:59;;;;;;;8.67;6.40;;;;;;;12.54;88.34;95125.50;5052339;28;20226;-44
2023/10/13 00:41:50;;;;;;;13.90;7.30;;;;;;;12.45;88.40;95116.06;5070554;28;20673;-44
2023/10/13 00:44:16;;;;;;;9.90;6.80;;;;;;;12.50;88.53;95124.94;5091690;28;20272;-44
2023/10/13 00:46:45;;;;;;;10.63;6.47;;;;;;;12.51;88.44;95130.88;5092457;28;20198;-43
2023/10/13 00:49:15;;;;;;;8.97;6.40;;;;;;;12.50;88.71;95121.56;5092485;28;20189;-43
2023/10/13 00:51:47;;;;;;;8.83;6.43;;;;;;;12.47;88.76;95122.66;5091798;28;20185;-45
2023/10/13 00:54:13;;;;;;;8.00;6.30;;;;;;;12.44;88.81;95127.28;5092269;28;20197;-44
2023/10/13 00:56:49;;;;;;;10.87;7.20;;;;;;;12.39;89.00;95132.81;5092062;28;20204;-42
2023/10/13 00:59:17;;;;;;;11.73;6.83;;;;;;;12.36;89.50;95125.38;5092208;28;20228;-43
2023/10/13 01:01:44;;;;;;;10.57;6.43;;;;;;;12.32;89.30;95123.25;5091557;28;20599;-44
2023/10/13 01:04:12;;;;;;;10.10;7.40;;;;;;;12.24;89.66;95119.59;5090802;28;20216;-44
2023/10/13 01:06:39;;;;;;;12.13;6.83;;;;;;;12.11;89.67;95103.69;5091579;28;20183;-44
2023/10/13 01:09:16;;;;;;;9.37;6.43;;;;;;;12.23;89.73;95127.44;5092049;28;20196;-44
2023/10/13 01:11:44;;;;;;;10.20;6.73;;;;;;;12.17;90.12;95118.50;5091720;28;20185;-43
2023/10/13 01:14:12;;;;;;;9.97;7.17;;;;;;;12.17;90.32;95128.78;5091284;28;20195;-43
2023/10/13 01:16:40;;;;;;;11.10;6.00;;;;;;;12.17;90.20;95126.22;5091544;28;20193;-42
2023/10/13 01:19:07;;;;;;;11.60;6.80;;;;;;;12.16;90.42;95128.91;5090105;28;20202;-43
2023/10/13 01:21:34;;;;;;;9.90;6.83;;;;;;;12.14;90.45;95125.69;5091447;28;20568;-43
2023/10/13 01:24:07;;;;;;;10.23;7.20;;;;;;;12.04;90.49;95121.34;5092032;28;20272;-43
2023/10/13 01:26:38;;;;;;;8.67;6.23;;;;;;;12.04;90.62;95123.91;5091647;28;20264;-43
2023/10/13 01:29:12;;;;;;;12.60;6.83;;;;;;;12.07;90.83;95125.41;5080440;28;20283;-44
2023/10/13 01:31:45;;;;;;;10.53;6.63;;;;;;;12.06;90.77;95134.06;5077554;28;20190;-44
2023/10/13 01:34:12;;;;;;;9.03;6.50;;;;;;;12.00;91.12;95122.59;5091524;28;20189;-43
2023/10/13 01:36:40;;;;;;;13.00;6.13;;;;;;;11.99;91.27;95132.97;5076230;28;20689;-44
2023/10/13 01:39:08;;;;;;;13.57;6.20;;;;;;;11.97;91.32;95133.13;5071665;28;20321;-45
2023/10/13 01:41:37;;;;;;;10.23;6.53;;;;;;;11.97;91.45;95138.25;5071589;28;20186;-44
2023/10/13 01:44:04;;;;;;;12.63;6.87;;;;;;;12.00;91.16;95140.56;5071274;28;20575;-44
2023/10/13 01:46:31;;;;;;;8.90;6.00;;;;;;;11.99;91.32;95138.91;5070881;28;20230;-43
2023/10/13 01:48:57;;;;;;;9.00;6.87;;;;;;;11.96;91.26;95136.63;5072725;28;20299;-44
2023/10/13 01:51:24;;;;;;;10.80;6.27;;;;;;;11.99;91.33;95141.47;5075108;28;20665;-43
2023/10/13 01:53:56;;;;;;;9.50;6.87;;;;;;;12.00;91.35;95143.13;5070470;28;20288;-42
2023/10/13 01:56:25;;;;;;;8.37;6.20;;;;;;;11.98;91.20;95129.59;5070705;28;20209;-44
2023/10/13 01:58:51;;;;;;;7.93;6.40;;;;;;;11.97;91.36;95127.19;5083938;28;20638;-44
2023/10/13 02:01:26;;;;;;;10.70;6.57;;;;;;;11.95;91.58;95124.75;5090312;28;20713;-44
2023/10/13 02:04:01;;;;;;;9.03;7.13;;;;;;;11.94;91.79;95124.88;5090788;28;20695;-43
2023/10/13 02:06:32;;;;;;;7.03;6.33;;;;;;;11.91;91.64;95128.50;5090914;28;20801;-45
2023/10/13 02:09:04;;;;;;;11.47;6.73;;;;;;;11.74;91.86;95099.25;5090562;28;20186;-44
2023/10/13 02:11:32;;;;;;;8.67;6.83;;;;;;;11.89;91.68;95120.16;5090639;28;20292;-47
2023/10/13 02:14:00;;;;;;;8.13;6.43;;;;;;;11.90;91.57;95116.66;5090353;28;20182;-43
2023/10/13 02:16:27;;;;;;;11.00;7.10;;;;;;;11.90;91.99;95123.53;5091282;28;20193;-45
2023/10/13 02:18:53;;;;;;;8.33;6.50;;;;;;;11.87;91.59;95122.03;5083717;28;20591;-44
2023/10/13 02:21:20;;;;;;;14.47;6.80;;;;;;;11.37;91.58;95037.59;5070599;28;20202;-43
2023/10/13 02:23:46;;;;;;;7.97;6.43;;;;;;;11.87;91.92;95122.03;5070100;28;20195;-44
2023/10/13 02:26:15;;;;;;;6.83;5.90;;;;;;;11.86;91.92;95117.88;5070373;28;20629;-43
2023/10/13 02:28:44;;;;;;;12.40;6.50;;;;;;;11.85;91.92;95118.00;5086686;28;20193;-44
2023/10/13 02:31:11;;;;;;;9.57;7.20;;;;;;;11.83;92.12;95120.72;5090106;28;20193;-43
2023/10/13 02:33:44;;;;;;;9.97;6.97;;;;;;;11.84;91.98;95124.09;5090007;28;20549;-42
2023/10/13 02:36:12;;;;;;;10.70;7.07;;;;;;;11.84;91.91;95124.91;5089077;28;20661;-43
2023/10/13 02:38:45;;;;;;;10.53;6.90;;;;;;;11.83;91.98;95119.88;5089813;28;20181;-43
2023/10/13 02:41:18;;;;;;;8.80;6.77;;;;;;;11.67;92.16;95099.91;5090169;28;20194;-42
2023/10/13 02:43:46;;;;;;;7.03;5.93;;;;;;;11.78;92.41;95123.63;5070457;28;20197;-44
2023/10/13 02:46:15;;;;;;;9.43;6.90;;;;;;;11.76;92.50;95122.16;5070052;28;20201;-43
2023/10/13 02:48:43;;;;;;;14.27;7.13;;;;;;;11.78;92.16;95133.06;5069409;28;20186;-43
2023/10/13 02:51:16;;;;;;;10.00;6.80;;;;;;;11.77;92.51;95129.69;5069927;28;20277;-45
2023/10/13 02:53:46;;;;;;;11.00;6.50;;;;;;;11.63;92.21;95106.25;5069208;28;20190;-43
2023/10/13 02:56:13;;;;;;;10.83;7.10;;;;;;;11.77;91.99;95139.94;5069627;28;20646;-43
2023/10/13 02:58:43;;;;;;;8.60;6.50;;;;;;;11.69;92.16;95133.88;5069462;28;20664;-44
2023/10/13 03:01:17;;;;;;;11.67;6.83;;;;;;;11.17;92.48;95052.13;5069515;28;20255;-45
2023/10/13 03:03:50;;;;;;;14.03;7.33;;;;;;;11.46;92.48;95105.16;5069102;28;20274;-44
2023/10/13 03:06:21;;;;;;;12.90;7.43;;;;;;;11.64;92.60;95136.84;5069493;28;20289;-41
2023/10/13 03:08:47;;;;;;;7.97;6.70;;;;;;;11.64;92.78;95144.53;5069093;28;20230;-43
2023/10/13 03:11:14;;;;;;;9.37;6.90;;;;;;;11.64;92.76;95148.84;5069599;28;20253;-44
2023/10/13 03:13:44;;;;;;;13.70;6.50;;;;;;;11.63;92.95;95149.78;5069619;28;20558;-44
2023/10/13 03:16:19;;;;;;;11.53;6.53;;;;;;;11.60;92.85;95143.16;5069478;28;20225;-43
2023/10/13 03:18:53;;;;;;;10.57;7.30;;;;;;;11.61;92.89;95149.91;5069023;28;20198;-43
2023/10/13 03:21:28;;;;;;;11.90;6.83;;;;;;;11.62;92.83;95150.75;5069686;28;20354;-42
2023/10/13 03:24:03;;;;;;;11.13;6.87;;;;;;;11.58;92.97;95145.06;5068962;28;20210;-41
2023/10/13 03:26:29;;;;;;;10.03;6.83;;;;;;;11.54;92.89;95139.41;5068976;28;20259;-43
2023/10/13 03:28:57;;;;;;;8.73;6.93;;;;;;;11.53;93.18;95142.91;5069319;28;20182;-43
2023/10/13 03:31:28;;;;;;;13.50;7.13;;;;;;;11.53;93.17;95145.47;5080482;28;20198;-44
2023/10/13 03:33:59;;;;;;;13.67;7.37;;;;;;;11.51;93.11;95149.91;5089133;28;20186;-43
2023/10/13 03:39:11;;;;;;;11.90;6.90;;;;;;;11.46;93.35;95143.56;5069048;28;20213;-42
2023/10/13 03:41:39;;;;;;;10.90;6.77;;;;;;;11.42;93.56;95137.88;5069745;28;20267;-44
2023/10/13 03:44:12;;;;;;;8.77;6.93;;;;;;;11.40;93.70;95138.94;5069192;28;20582;-43
2023/10/13 03:46:42;;;;;;;8.27;6.90;;;;;;;11.38;93.83;95130.59;5069863;28;20186;-44
2023/10/13 03:49:12;;;;;;;17.00;7.63;;;;;;;11.34;93.70;95124.13;5074143;28;20190;-43
2023/10/13 03:51:40;;;;;;;9.77;6.93;;;;;;;11.33;93.79;95125.06;5081692;28;20229;-44
2023/10/13 03:54:08;;;;;;;9.97;7.03;;;;;;;11.27;94.11;95114.41;5092275;28;20244;-43
2023/10/13 03:56:39;;;;;;;9.23;6.53;;;;;;;11.27;94.20;95111.84;5089126;28;20280;-42
2023/10/13 03:59:09;;;;;;;9.97;7.47;;;;;;;11.27;94.33;95109.28;5089053;28;20572;-44
2023/10/13 04:01:45;;;;;;;14.23;9.03;;;;;;;11.28;94.36;95104.97;5078045;28;20226;-45
2023/10/13 04:04:15;;;;;;;14.50;8.20;;;;;;;11.32;94.43;95108.91;5068927;28;20281;-44
2023/10/13 04:07:13;;;;;;;14.17;8.60;;;;;;;11.35;94.27;95110.38;5069285;28;20185;-44
2023/10/13 04:10:44;;;;;;;13.00;8.33;;;;;;;11.41;94.15;95117.53;5070169;28;20275;-45
2023/10/13 04:15:42;;;;;;;14.07;7.57;;;;;;;11.41;93.93;95102.97;5069138;28;20300;-44
2023/10/13 04:18:30;;;;;;;12.00;7.90;;;;;;;11.41;93.96;95113.22;5083593;28;20252;-44
2023/10/13 04:21:08;;;;;;;10.63;7.77;;;;;;;11.38;93.96;95113.47;5071294;28;20968;-43
2023/10/13 04:24:08;;;;;;;16.07;8.47;;;;;;;11.35;94.17;95116.28;5069297;28;20202;-43
2023/10/13 04:26:21;;;;;;;15.47;7.57;;;;;;;11.37;94.04;95123.88;5073899;28;20187;-44
2023/10/13 04:28:56;;;;;;;15.73;8.03;;;;;;;11.37;93.94;95123.88;5069537;28;20626;-45
2023/10/13 04:31:46;;;;;;;18.30;8.83;;;;;;;11.36;94.03;95127.38;5078569;28;20196;-43
2023/10/13 04:34:19;;;;;;;14.20;7.60;;;;;;;11.37;94.06;95134.09;5088990;28;20197;-43
2023/10/13 04:36:55;;;;;;;19.70;9.20;;;;;;;11.37;94.10;95139.22;5089200;28;20271;-42
2023/10/13 04:39:29;;;;;;;15.30;7.77;;;;;;;11.40;93.86;95133.81;5076424;28;20225;-43
2023/10/13 04:42:10;;;;;;;14.60;8.00;;;;;;;11.40;93.71;95137.22;5072594;28;20190;-42
2023/10/13 04:47:22;;;;;;;20.43;8.83;;;;;;;11.42;93.69;95144.75;5071576;28;20538;-42
2023/10/13 04:49:51;;;;;;;19.87;7.77;;;;;;;11.45;93.52;95147.06;5071944;28;20270;-43
2023/10/13 04:55:32;;;;;;;15.60;7.73;;;;;;;11.48;93.29;95154.47;5071798;28;20294;-42
2023/10/13 04:58:10;;;;;;;20.03;8.23;;;;;;;11.45;93.37;95154.75;5081655;28;20197;-42
2023/10/13 05:44:33;;;;;;;14.30;8.57;;;;;;;11.47;93.20;95169.03;5091661;28;20196;-42
2023/10/13 05:48:13;;;;;;;18.67;9.03;;;;;;;12.82;87.58;95211.03;5085884;27;20717;-45
2023/10/13 06:28:59;;;;;;;14.93;9.63;;;;;;;15.75;74.85;95243.03;5024733;28;20199;-45
2023/10/13 06:31:26;;;;;;;20.57;12.00;;;;;;;16.13;73.13;95235.72;5074244;28;20222;-43
2023/10/13 06:33:55;;;;;;;25.47;12.93;;;;;;;16.40;71.93;95238.03;5085386;28;20620;-43
2023/10/13 06:36:23;;;;;;;18.47;10.67;;;;;;;16.69;71.01;95237.56;5085190;28;20202;-43
2023/10/13 06:39:20;;;;;;;29.77;12.57;;;;;;;17.02;70.27;95237.56;5085938;28;20198;-43
2023/10/13 06:41:43;;;;;;;21.27;11.77;;;;;;;17.41;67.94;95242.03;5085064;28;20194;-43
2023/10/13 06:44:15;;;;;;;21.57;11.30;;;;;;;17.55;67.36;95236.94;5085555;28;20178;-42
2023/10/13 06:46:43;;;;;;;23.60;11.73;;;;;;;17.78;66.68;95231.06;5085402;28;20237;-43
2023/10/13 06:49:10;;;;;;;17.47;11.30;;;;;;;18.03;66.46;95242.91;5085886;28;20211;-42
2023/10/13 06:51:38;;;;;;;19.23;11.93;;;;;;;18.36;65.46;95236.75;5084977;28;20213;-44
2023/10/13 06:54:11;;;;;;;21.33;11.30;;;;;;;18.74;64.61;95240.22;5081432;28;20610;-43
2023/10/13 06:56:40;;;;;;;16.03;11.20;;;;;;;19.10;62.08;95245.56;5084730;28;20626;-44
2023/10/13 06:59:07;;;;;;;25.93;11.60;;;;;;;19.25;60.45;95237.78;5075507;28;20856;-42
2023/10/13 07:01:38;;;;;;;21.10;11.40;;;;;;;19.27;60.97;95233.25;5075170;28;20198;-42
2023/10/13 07:04:12;;;;;;;19.53;12.03;;;;;;;19.51;60.63;95224.38;5072252;28;20247;-43
2023/10/13 07:06:44;;;;;;;20.37;12.27;;;;;;;19.82;59.57;95218.22;5073447;28;20684;-44
2023/10/13 07:09:28;;;;;;;23.90;12.37;;;;;;;20.08;58.46;95208.16;5071496;28;20685;-42
2023/10/13 07:11:59;;;;;;;16.73;12.90;;;;;;;20.21;57.90;95208.28;5070798;28;20206;-42
2023/10/13 07:14:26;;;;;;;21.80;12.33;;;;;;;20.47;57.97;95220.72;5074022;28;20182;-43
2023/10/13 07:16:59;;;;;;;26.60;12.00;;;;;;;20.73;56.45;95217.59;5068250;28;20232;-42
2023/10/13 07:19:27;;;;;;;22.07;12.27;;;;;;;20.95;55.82;95233.16;5067668;28;20186;-43
2023/10/13 07:21:59;;;;;;;20.00;12.23;;;;;;;21.01;55.52;95237.59;5070888;28;20470;-43
2023/10/13 07:24:30;;;;;;;16.70;12.20;;;;;;;21.04;54.44;95235.41;5071000;28;20201;-43
2023/10/13 07:27:03;;;;;;;23.48;13.05;;;;;;;21.04;54.41;95232.03;5070603;28;20268;-45
2023/10/13 07:29:30;;;;;;;19.25;12.38;;;;;;;21.14;55.08;95231.69;5071013;28;20186;-43
2023/10/13 07:31:58;;;;;;;23.15;13.00;;;;;;;21.34;54.27;95224.06;5070681;28;20198;-43
2023/10/13 07:34:26;;;;;;;19.50;12.88;;;;;;;21.51;54.10;95223.53;5070481;28;20205;-42
2023/10/13 07:36:55;;;;;;;23.95;13.43;;;;;;;21.71;53.16;95228.84;5070153;28;20198;-42
2023/10/13 07:39:25;;;;;;;24.52;12.80;;;;;;;21.90;52.34;95221.31;5070592;28;20194;-44
2023/10/13 07:41:53;;;;;;;22.10;13.07;;;;;;;21.95;51.51;95217.13;5068932;28;20234;-43
2023/10/13 07:44:24;;;;;;;21.85;12.93;;;;;;;21.92;51.67;95219.31;5070876;28;20197;-43
2023/10/13 07:46:59;;;;;;;23.65;12.45;;;;;;;21.92;51.45;95219.31;5070324;28;20423;-42
2023/10/13 07:49:31;;;;;;;20.25;12.70;;;;;;;21.94;52.20;95210.31;5071119;28;20217;-43
2023/10/13 07:52:14;;;;;;;27.70;14.40;;;;;;;22.04;51.88;95205.53;5069821;28;20245;-45
2023/10/13 07:54:47;;;;;;;20.02;13.68;;;;;;;22.05;51.47;95204.53;5071099;28;20220;-44
2023/10/13 07:57:15;;;;;;;29.85;13.02;;;;;;;22.05;51.29;95206.31;5071168;28;20672;-43
2023/10/13 07:59:48;;;;;;;24.25;12.75;;;;;;;21.99;51.22;95212.34;5070109;28;20202;-45
2023/10/13 08:02:47;;;;;;;17.10;12.63;;;;;;;21.91;51.54;95202.88;5068421;28;20605;-43
2023/10/13 08:05:04;;;;;;;20.40;13.38;;;;;;;22.02;51.15;95207.53;5067760;28;20632;-45
2023/10/13 08:07:33;;;;;;;19.73;12.35;;;;;;;21.98;51.58;95182.88;5070283;28;20289;-43
2023/10/13 08:10:01;;;;;;;20.48;11.80;;;;;;;22.30;51.40;95198.81;5069430;28;20186;-42
2023/10/13 08:12:28;;;;;;;17.63;11.85;;;;;;;22.54;50.32;95200.06;5074235;28;20281;-44
2023/10/13 08:15:12;;;;;;;23.77;13.73;;;;;;;22.78;49.92;95207.28;5079658;28;20202;-44
2023/10/13 08:17:44;;;;;;;23.10;14.98;;;;;;;23.00;49.30;95209.69;5072290;28;20201;-43
2023/10/13 08:20:12;;;;;;;22.15;13.93;;;;;;;22.92;49.46;95208.09;5070423;28;20227;-44
2023/10/13 08:22:39;;;;;;;26.65;13.98;;;;;;;22.86;49.37;95210.69;5069233;28;20638;-44
2023/10/13 08:25:20;;;;;;;28.85;14.45;;;;;;;22.79;49.55;95216.69;5069344;28;20631;-42
2023/10/13 08:28:04;;;;;;;22.17;13.38;;;;;;;22.64;49.86;95223.13;5069432;28;20206;-42
2023/10/13 08:30:36;;;;;;;23.75;14.45;;;;;;;22.57;49.94;95228.31;5069189;28;20198;-43
2023/10/13 08:33:16;;;;;;;27.35;12.32;;;;;;;22.36;50.13;95231.88;5069132;28;20194;-42
2023/10/13 08:35:54;;;;;;;23.33;13.30;;;;;;;22.08;50.40;95215.56;5069348;28;20209;-44
2023/10/13 08:38:28;;;;;;;24.77;12.32;;;;;;;22.12;51.00;95219.38;5069163;28;20194;-43
2023/10/13 08:43:50;;;;;;;20.95;12.18;;;;;;;22.09;51.00;95211.97;5068930;28;20229;-44
2023/10/13 08:46:28;;;;;;;22.08;12.80;;;;;;;22.15;51.48;95206.81;5069112;28;20671;-44
2023/10/13 08:49:17;;;;;;;25.40;12.30;;;;;;;22.28;51.20;95208.66;5066688;28;20194;-43
2023/10/13 08:51:48;;;;;;;26.42;12.32;;;;;;;22.42;51.17;95209.47;5066612;28;20179;-51
2023/10/13 08:54:34;;;;;;;19.83;11.43;;;;;;;22.54;50.30;95208.69;5069960;28;20569;-44
2023/10/13 08:57:19;;;;;;;20.65;11.65;;;;;;;22.44;50.62;95199.63;5066716;28;20206;-43
2023/10/13 08:59:55;;;;;;;19.85;12.23;;;;;;;22.27;51.36;95202.59;5069101;28;20218;-42
2023/10/13 09:02:22;;;;;;;25.17;12.73;;;;;;;22.31;51.50;95208.22;5068865;28;20301;-43
2023/10/13 09:05:09;;;;;;;25.98;12.15;;;;;;;22.34;51.22;95205.22;5068874;28;20755;-43
2023/10/13 09:07:46;;;;;;;24.80;11.90;;;;;;;22.40;51.48;95194.00;5068402;28;20236;-44
2023/10/13 09:10:33;;;;;;;29.10;12.38;;;;;;;22.53;51.06;95201.84;5067838;28;20201;-45
2023/10/13 09:13:01;;;;;;;26.00;10.75;;;;;;;22.63;50.59;95196.25;5068781;28;20664;-43
2023/10/13 09:18:41;;;;;;;19.63;11.75;;;;;;;22.75;50.07;95199.03;5067439;28;20194;-43
2023/10/13 09:21:29;;;;;;;31.00;11.63;;;;;;;22.75;50.19;95191.22;5065845;28;20187;-44
2023/10/13 09:24:16;;;;;;;16.30;10.07;;;;;;;22.75;50.13;95191.22;5065579;28;20218;-45
2023/10/13 09:26:44;;;;;;;19.65;10.48;;;;;;;22.93;50.12;95185.44;5068379;28;20212;-44
2023/10/13 09:29:18;;;;;;;28.42;10.50;;;;;;;23.11;49.74;95179.59;5068956;28;20269;-44
2023/10/13 09:31:59;;;;;;;25.88;9.15;;;;;;;23.26;49.62;95167.91;5066392;28;20191;-44
2023/10/13 09:34:29;;;;;;;22.65;10.70;;;;;;;23.63;49.29;95173.44;5068389;28;20692;-45
2023/10/13 09:36:58;;;;;;;31.38;9.52;;;;;;;23.76;48.18;95168.19;5068110;28;20209;-44
2023/10/13 09:39:34;;;;;;;26.77;9.65;;;;;;;23.80;47.92;95173.00;5065986;28;20344;-45
2023/10/13 09:42:03;;;;;;;14.15;7.60;;;;;;;23.91;47.35;95170.50;5067819;28;20186;-45
2023/10/13 09:44:31;;;;;;;22.65;8.63;;;;;;;24.14;47.19;95164.78;5068414;28;20623;-44
2023/10/13 09:47:07;;;;;;;15.80;7.47;;;;;;;24.35;46.42;95161.00;5067748;28;20237;-45
2023/10/13 09:49:44;;;;;;;27.42;7.90;;;;;;;24.41;44.79;95156.78;5068755;28;20259;-45
2023/10/13 09:52:19;;;;;;;20.52;7.05;;;;;;;24.19;44.29;95128.34;5066574;28;20194;-45
2023/10/13 09:55:02;;;;;;;12.77;6.75;;;;;;;24.40;44.36;95163.03;5068160;28;20487;-45
2023/10/13 09:57:44;;;;;;;14.27;5.95;;;;;;;24.35;43.40;95158.38;5065647;28;20194;-45
2023/10/13 10:03:04;;;;;;;22.38;7.38;;;;;;;24.12;43.19;95121.56;5062604;28;20867;-43
2023/10/13 10:05:34;;;;;;;19.65;6.57;;;;;;;24.29;43.80;95127.88;5068816;28;20204;-45
2023/10/13 10:08:01;;;;;;;19.33;6.78;;;;;;;24.53;43.25;95140.19;5067722;28;20236;-46
2023/10/13 10:10:47;;;;;;;17.45;6.60;;;;;;;24.64;43.10;95138.69;5067792;28;20190;-44
2023/10/13 10:13:23;;;;;;;16.30;5.95;;;;;;;24.75;42.68;95137.22;5066889;28;20665;-45
2023/10/13 10:15:56;;;;;;;17.02;6.30;;;;;;;24.82;42.61;95132.69;5067541;28;20198;-43
2023/10/13 10:18:25;;;;;;;11.57;5.63;;;;;;;24.96;42.22;95130.78;5068931;28;20191;-44
2023/10/13 10:20:54;;;;;;;10.13;5.32;;;;;;;25.08;42.08;95131.66;5068221;28;20214;-45
2023/10/13 10:23:27;;;;;;;12.25;6.20;;;;;;;25.22;42.12;95132.34;5069241;28;20266;-45
2023/10/13 10:26:07;;;;;;;12.13;5.35;;;;;;;25.30;41.18;95115.53;5068108;28;20570;-43
2023/10/13 10:28:38;;;;;;;12.35;5.95;;;;;;;25.43;41.52;95118.81;5067665;28;20259;-44
2023/10/13 10:31:12;;;;;;;9.43;5.38;;;;;;;25.58;40.84;95115.00;5067539;28;20190;-45
2023/10/13 10:33:40;;;;;;;10.95;5.60;;;;;;;25.72;41.09;95121.69;5069462;28;20673;-43
2023/10/13 10:36:14;;;;;;;14.15;5.80;;;;;;;25.85;40.82;95123.34;5073632;28;20270;-46
2023/10/13 10:38:54;;;;;;;11.40;5.60;;;;;;;25.94;40.79;95119.41;5072227;28;20222;-44
2023/10/13 10:41:29;;;;;;;14.07;5.93;;;;;;;25.98;40.19;95116.09;5070771;28;20216;-44
2023/10/13 10:44:02;;;;;;;10.75;5.90;;;;;;;26.03;39.17;95118.06;5070687;28;20290;-45
2023/10/13 10:46:40;;;;;;;13.13;5.05;;;;;;;25.94;38.93;95127.25;5071561;28;20287;-44
2023/10/13 10:49:08;;;;;;;14.15;4.18;;;;;;;25.80;38.08;95115.38;5071220;28;20321;-46
2023/10/13 10:51:43;;;;;;;8.57;4.55;;;;;;;25.68;38.21;95120.53;5072530;28;20198;-43
2023/10/13 10:54:19;;;;;;;10.73;5.20;;;;;;;25.69;38.42;95116.88;5071355;28;20228;-44
2023/10/13 10:56:52;;;;;;;7.47;3.80;;;;;;;25.69;38.60;95116.88;5068838;28;20360;-45
2023/10/13 10:59:19;;;;;;;8.40;4.40;;;;;;;25.61;38.50;95091.81;5072214;28;20265;-46
2023/10/13 11:01:50;;;;;;;7.25;4.15;;;;;;;25.76;38.12;95113.19;5071685;28;20252;-44
2023/10/13 11:04:24;;;;;;;8.60;4.20;;;;;;;25.70;38.50;95094.91;5068693;28;20248;-44
2023/10/13 11:06:54;;;;;;;7.30;4.18;;;;;;;25.86;38.43;95107.41;5071091;28;20206;-45
2023/10/13 11:09:31;;;;;;;6.80;3.95;;;;;;;25.89;38.44;95106.16;5070844;28;20613;-43
2023/10/13 11:12:14;;;;;;;9.32;4.28;;;;;;;25.87;38.30;95095.13;5070985;28;20205;-43
2023/10/13 11:14:43;;;;;;;9.40;3.83;;;;;;;25.90;38.30;95092.03;5069948;28;20190;-44
2023/10/13 11:17:18;;;;;;;9.73;4.10;;;;;;;25.92;38.01;95097.88;5070924;28;20191;-43
2023/10/13 11:19:48;;;;;;;7.38;4.32;;;;;;;26.00;37.58;95098.34;5070868;28;20193;-43
2023/10/13 11:22:32;;;;;;;6.18;4.30;;;;;;;26.10;37.94;95091.75;5070962;28;20194;-46
2023/10/13 11:25:00;;;;;;;7.55;3.97;;;;;;;26.11;37.29;95091.53;5068542;28;20201;-45
2023/10/13 11:27:44;;;;;;;4.68;3.70;;;;;;;26.13;37.54;95084.25;5073007;28;20202;-44
2023/10/13 11:30:14;;;;;;;16.55;3.80;;;;;;;26.21;37.49;95086.56;5068178;28;20197;-45
2023/10/13 11:32:42;;;;;;;9.23;4.28;;;;;;;26.28;36.95;95084.59;5070438;28;20201;-44
2023/10/13 11:35:20;;;;;;;7.85;3.45;;;;;;;26.33;37.07;95085.75;5068857;28;20183;-46
2023/10/13 11:37:56;;;;;;;5.18;3.28;;;;;;;26.23;36.00;95079.25;5070325;28;20194;-45
2023/10/13 11:40:43;;;;;;;5.00;3.10;;;;;;;26.20;36.40;95081.50;5070505;28;20193;-45
2023/10/13 11:43:13;;;;;;;7.10;3.38;;;;;;;26.16;36.67;95067.25;5070923;28;20270;-45
2023/10/13 11:45:53;;;;;;;6.53;3.10;;;;;;;26.17;36.12;95061.00;5070436;28;20220;-44
2023/10/13 11:48:34;;;;;;;5.53;3.10;;;;;;;26.23;36.49;95065.34;5071386;28;20306;-44
2023/10/13 11:51:05;;;;;;;7.53;3.33;;;;;;;26.22;36.21;95069.00;5070230;28;20635;-44
2023/10/13 11:53:32;;;;;;;9.45;3.53;;;;;;;26.25;35.43;95063.28;5072834;28;20195;-43
2023/10/13 11:55:59;;;;;;;4.28;3.13;;;;;;;26.26;35.65;95065.69;5070582;28;20194;-43
2023/10/13 11:58:28;;;;;;;7.18;3.10;;;;;;;26.28;36.31;95063.63;5069714;28;20198;-44
2023/10/13 12:01:08;;;;;;;10.70;3.83;;;;;;;26.35;35.86;95058.28;5070274;28;20187;-43
2023/10/13 12:06:32;;;;;;;8.43;3.35;;;;;;;26.35;36.20;95053.03;5069696;28;20277;-44
2023/10/13 12:09:12;;;;;;;6.18;3.03;;;;;;;26.30;35.68;95046.88;5069032;28;20209;-44
2023/10/13 12:11:41;;;;;;;5.25;2.70;;;;;;;26.34;35.55;95043.59;5070373;28;20666;-46
2023/10/13 12:16:50;;;;;;;7.22;3.10;;;;;;;26.22;35.58;95009.47;5067561;28;20214;-44
2023/10/13 12:19:23;;;;;;;14.88;3.28;;;;;;;26.41;35.64;95038.22;5069286;28;20238;-45
2023/10/13 12:21:54;;;;;;;8.23;3.45;;;;;;;26.45;35.23;95036.75;5069689;28;20259;-45
2023/10/13 12:24:39;;;;;;;6.07;3.60;;;;;;;26.45;35.35;95034.13;5069337;28;20194;-44
2023/10/13 12:27:18;;;;;;;9.30;3.65;;;;;;;26.41;35.70;95040.84;5067253;28;20209;-44
2023/10/13 12:29:46;;;;;;;9.10;3.28;;;;;;;26.43;36.04;95028.31;5069333;28;20276;-45
2023/10/13 12:32:14;;;;;;;6.53;3.45;;;;;;;26.45;35.58;95028.91;5070216;28;20650;-44
2023/10/13 12:34:59;;;;;;;6.15;3.33;;;;;;;26.50;35.39;95029.00;5072082;28;20197;-43
2023/10/13 12:37:52;;;;;;;6.43;2.90;;;;;;;26.45;34.84;95029.69;5084518;28;20240;-47
2023/10/13 12:49:04;;;;;;;6.10;2.88;;;;;;;26.20;34.10;95021.22;5068957;28;20266;-44
2023/10/13 12:51:50;;;;;;;7.65;3.05;;;;;;;26.10;34.64;95019.16;5068730;28;20197;-44
2023/10/13 12:54:23;;;;;;;5.13;2.50;;;;;;;26.17;34.81;95021.69;5068105;28;20621;-44
2023/10/13 12:56:56;;;;;;;6.60;3.72;;;;;;;26.11;35.23;95028.59;5064293;28;20198;-45
2023/10/13 12:59:27;;;;;;;4.88;2.80;;;;;;;26.14;34.58;95022.13;5068916;28;20206;-44
2023/10/13 13:01:54;;;;;;;4.80;3.25;;;;;;;26.12;34.71;95027.59;5069170;28;20198;-43
2023/10/13 13:04:21;;;;;;;6.75;2.80;;;;;;;26.07;34.95;95019.59;5070469;28;20201;-45
2023/10/13 13:06:51;;;;;;;7.90;2.95;;;;;;;25.83;34.60;94983.91;5068823;28;20504;-44
2023/10/13 13:09:25;;;;;;;5.35;2.80;;;;;;;26.02;34.61;95016.84;5068627;28;20685;-44
2023/10/13 13:11:57;;;;;;;7.47;3.33;;;;;;;25.97;34.79;95014.91;5068721;28;20182;-43
2023/10/13 13:14:28;;;;;;;4.70;3.35;;;;;;;26.02;34.90;95011.63;5068802;28;20697;-43
2023/10/13 13:17:01;;;;;;;7.22;3.00;;;;;;;26.01;35.09;95012.66;5068399;28;20198;-43
2023/10/13 13:19:35;;;;;;;6.47;2.67;;;;;;;26.03;34.61;95010.59;5070588;28;20641;-45
2023/10/13 13:22:04;;;;;;;6.47;3.28;;;;;;;26.09;34.91;95022.00;5068498;28;20816;-44
2023/10/13 13:24:31;;;;;;;8.50;3.47;;;;;;;26.08;35.00;95018.59;5068714;28;20610;-43
2023/10/13 13:27:02;;;;;;;6.32;3.05;;;;;;;26.07;34.83;95018.81;5068355;28;20191;-43
2023/10/13 13:29:30;;;;;;;4.75;2.67;;;;;;;26.06;34.31;95017.22;5066381;28;20232;-44
2023/10/13 13:32:05;;;;;;;9.70;3.67;;;;;;;26.03;34.40;95014.00;5068190;28;20202;-43
2023/10/13 13:34:34;;;;;;;7.88;3.13;;;;;;;26.04;34.56;95014.81;5067845;28;20673;-44
2023/10/13 13:37:02;;;;;;;10.18;3.03;;;;;;;26.06;34.63;95011.97;5068521;28;20206;-45
2023/10/13 13:39:32;;;;;;;6.85;3.10;;;;;;;26.07;34.53;95016.19;5067958;28;20202;-47
2023/10/13 13:41:59;;;;;;;5.47;3.03;;;;;;;26.03;35.00;95011.38;5068821;28;20177;-45
2023/10/13 13:44:35;;;;;;;5.60;3.33;;;;;;;26.04;34.88;95017.44;5068114;28;20700;-44
2023/10/13 13:47:11;;;;;;;5.60;3.38;;;;;;;26.02;34.69;95019.47;5066059;28;20589;-43
2023/10/13 13:49:40;;;;;;;5.22;2.78;;;;;;;26.02;34.81;95012.41;5067373;28;20688;-45